Time;durP1;ratioP1;P1;durP2;ratioP2;P2;SDS_P1;SDS_P2;PMS_P1;PMS_P2;Temp;Humidity;BMP_temperature;BMP_pressure;BME280_temperature;BME280_humidity;BME280_pressure;Samples;Min_cycle;Max_cycle;Signal;HPM_P1;HPM_P2
2022/05/31 19:18:15;;;;;;;3.20;2.40;;;17.70;79.60;;;;;;5174107;27;20329;-74
2022/05/31 19:20:41;;;;;;;4.43;2.40;;;17.00;80.90;;;;;;5175075;27;20023;-74
2022/05/31 19:23:07;;;;;;;3.00;2.45;;;16.90;80.50;;;;;;5173932;27;20503;-74
2022/05/31 19:25:33;;;;;;;3.85;2.67;;;16.90;81.30;;;;;;5174790;27;20530;-75
2022/05/31 19:27:59;;;;;;;3.45;2.35;;;16.80;81.30;;;;;;5175482;27;20035;-75
2022/05/31 19:30:31;;;;;;;3.95;2.40;;;16.60;82.10;;;;;;5175106;27;20031;-75
2022/05/31 19:32:59;;;;;;;3.83;2.20;;;16.50;82.80;;;;;;5172519;27;20031;-75
2022/05/31 19:35:26;;;;;;;5.53;2.45;;;16.40;83.50;;;;;;5173816;27;20486;-75
2022/05/31 19:37:56;;;;;;;4.53;2.50;;;16.30;84.60;;;;;;5174004;27;20092;-75
2022/05/31 19:40:22;;;;;;;3.38;2.20;;;16.20;84.70;;;;;;5174426;27;20114;-79
2022/05/31 19:42:48;;;;;;;4.40;2.30;;;16.00;84.60;;;;;;5175569;27;20037;-81
2022/05/31 19:45:14;;;;;;;4.22;2.75;;;16.00;85.60;;;;;;5175651;27;20035;-79
2022/05/31 19:47:40;;;;;;;5.63;2.53;;;15.90;85.50;;;;;;5175339;27;20042;-79
2022/05/31 19:50:06;;;;;;;4.00;2.60;;;15.90;86.00;;;;;;5175989;27;20027;-76
2022/05/31 19:52:33;;;;;;;4.32;2.50;;;15.90;85.70;;;;;;5174421;27;20035;-75
2022/05/31 19:55:03;;;;;;;3.03;2.15;;;15.90;85.70;;;;;;5173732;27;20034;-75
2022/05/31 19:57:32;;;;;;;7.03;2.20;;;15.80;87.10;;;;;;5173717;27;20035;-75
2022/05/31 19:59:57;;;;;;;3.33;2.20;;;15.80;87.10;;;;;;5174073;27;20068;-75
2022/05/31 20:02:23;;;;;;;3.08;2.15;;;15.80;87.10;;;;;;5173861;27;20035;-75
2022/05/31 20:04:48;;;;;;;3.70;2.30;;;15.80;87.90;;;;;;5173398;27;20058;-75
2022/05/31 20:07:24;;;;;;;5.10;2.30;;;15.80;88.70;;;;;;5173970;27;20038;-75
2022/05/31 20:10:07;;;;;;;4.60;2.60;;;15.80;89.20;;;;;;5174053;27;20030;-75
2022/05/31 20:12:42;;;;;;;2.95;2.20;;;15.80;89.90;;;;;;5171900;27;20067;-75
2022/05/31 20:15:19;;;;;;;5.22;2.65;;;15.70;90.80;;;;;;5173162;27;20451;-75
2022/05/31 20:17:48;;;;;;;2.75;2.28;;;15.60;91.50;;;;;;5173392;27;20062;-75
2022/05/31 20:20:15;;;;;;;4.03;2.53;;;15.60;91.90;;;;;;5173800;27;20027;-76
2022/05/31 20:22:45;;;;;;;3.90;2.70;;;15.50;91.90;;;;;;5173370;27;20070;-76
2022/05/31 20:25:14;;;;;;;2.75;2.38;;;15.60;90.30;;;;;;5173207;27;20041;-76
2022/05/31 20:27:40;;;;;;;7.00;2.50;;;15.50;90.40;;;;;;5170512;27;20038;-75
2022/05/31 20:30:11;;;;;;;6.82;2.50;;;15.60;90.90;;;;;;5160133;27;20019;-76
2022/05/31 20:32:42;;;;;;;3.83;2.22;;;15.50;90.90;;;;;;5160584;27;20515;-75
2022/05/31 20:35:10;;;;;;;3.78;2.67;;;15.50;91.20;;;;;;5154139;27;20092;-75
2022/05/31 20:37:37;;;;;;;4.22;3.03;;;15.40;91.60;;;;;;5138214;27;20036;-75
2022/05/31 20:40:03;;;;;;;4.93;2.40;;;15.40;92.00;;;;;;5135333;27;20565;-75
2022/05/31 20:42:37;;;;;;;4.20;2.70;;;15.40;92.30;;;;;;5139563;27;20556;-75
2022/05/31 20:45:06;;;;;;;3.40;2.53;;;15.50;91.60;;;;;;5149466;27;20046;-75
2022/05/31 20:47:34;;;;;;;3.53;2.38;;;15.40;92.30;;;;;;5156222;27;20063;-74
2022/05/31 20:50:01;;;;;;;2.97;2.05;;;15.50;91.30;;;;;;5159392;27;20103;-75
2022/05/31 20:52:28;;;;;;;5.40;2.13;;;15.40;91.30;;;;;;5155401;27;20028;-75
2022/05/31 20:54:54;;;;;;;3.05;2.13;;;15.40;91.90;;;;;;5158601;27;20512;-75
2022/05/31 20:57:25;;;;;;;4.25;2.15;;;15.30;92.20;;;;;;5158795;27;20050;-75
2022/05/31 20:59:52;;;;;;;4.43;2.20;;;15.30;92.40;;;;;;5158999;27;20432;-75
2022/05/31 21:02:17;;;;;;;4.82;1.92;;;15.20;92.50;;;;;;5158271;27;20110;-75
2022/05/31 21:04:43;;;;;;;2.92;2.25;;;15.20;92.70;;;;;;5158435;27;20032;-75
2022/05/31 21:07:08;;;;;;;3.78;2.25;;;15.20;92.80;;;;;;5158872;27;20039;-75
2022/05/31 21:09:34;;;;;;;3.58;2.00;;;15.10;92.90;;;;;;5158762;27;20880;-75
2022/05/31 21:12:00;;;;;;;4.22;2.42;;;15.10;93.10;;;;;;5158533;27;20031;-75
2022/05/31 21:14:28;;;;;;;3.50;2.50;;;15.00;93.20;;;;;;5158340;27;20034;-75
2022/05/31 21:16:53;;;;;;;5.20;2.42;;;14.90;93.40;;;;;;5158236;27;20592;-75
2022/05/31 21:19:20;;;;;;;4.03;2.60;;;14.90;93.70;;;;;;5158245;27;20114;-74
2022/05/31 21:21:47;;;;;;;5.22;2.72;;;14.80;93.90;;;;;;5158074;27;20035;-75
2022/05/31 21:24:14;;;;;;;3.65;2.90;;;14.70;94.60;;;;;;5158307;27;20558;-75
2022/05/31 21:26:40;;;;;;;4.45;2.67;;;14.60;94.70;;;;;;5158227;27;20035;-75
2022/05/31 21:29:30;;;;;;;3.97;2.83;;;14.50;95.00;;;;;;5158538;27;20031;-75
2022/05/31 21:31:57;;;;;;;4.15;2.83;;;14.40;95.50;;;;;;5158419;27;20037;-75
2022/05/31 21:34:23;;;;;;;3.53;2.72;;;14.30;95.60;;;;;;5157851;27;20104;-75
2022/05/31 21:36:55;;;;;;;3.58;2.88;;;14.20;95.50;;;;;;5158085;27;20049;-75
2022/05/31 21:42:05;;;;;;;2.78;2.30;;;13.90;96.10;;;;;;5158100;27;20035;-74
2022/05/31 21:44:31;;;;;;;2.67;2.33;;;13.80;96.30;;;;;;5158233;27;20035;-75
2022/05/31 21:46:56;;;;;;;3.42;2.20;;;13.80;96.30;;;;;;5157996;27;20035;-74
2022/05/31 21:49:22;;;;;;;4.15;2.47;;;13.80;96.30;;;;;;5157891;27;20031;-75
2022/05/31 21:51:48;;;;;;;2.88;1.88;;;13.80;96.70;;;;;;5158083;27;20031;-75
2022/05/31 21:54:14;;;;;;;3.97;2.50;;;13.80;96.70;;;;;;5157880;27;20042;-75
2022/05/31 21:56:40;;;;;;;3.47;2.50;;;13.80;96.80;;;;;;5158024;27;20070;-74
2022/05/31 21:59:16;;;;;;;3.22;2.40;;;13.90;96.70;;;;;;5158256;27;20106;-75
